createdAt,value
2018-07-17T00:02:08.679Z,77.10
2018-07-17T00:04:37.222Z,78.10
2018-07-17T00:07:05.786Z,79.20
2018-07-17T00:09:34.407Z,79.80
2018-07-17T00:12:02.997Z,79.80
2018-07-17T00:14:31.601Z,80.50
2018-07-17T00:17:00.153Z,79.40
2018-07-17T00:21:56.957Z,79.30
2018-07-17T00:24:25.518Z,82.50
2018-07-17T00:26:54.081Z,82.40
2018-07-17T00:29:22.845Z,82.00
2018-07-17T00:31:53.725Z,83.30
2018-07-17T00:34:22.273Z,83.30
2018-07-17T00:36:51.390Z,84.40
2018-07-17T00:39:21.465Z,86.40
2018-07-17T00:41:49.989Z,87.80
2018-07-17T00:44:19.135Z,88.20
2018-07-17T00:46:47.657Z,89.10
2018-07-17T00:49:16.246Z,90.00
2018-07-17T00:51:45.118Z,90.30
2018-07-17T00:54:13.653Z,90.60
2018-07-17T00:56:42.222Z,90.70
2018-07-17T00:59:11.457Z,90.80
2018-07-17T01:01:47.041Z,91.10
2018-07-17T01:04:20.889Z,91.00
2018-07-17T01:06:55.036Z,91.40
2018-07-17T01:09:28.948Z,91.70
2018-07-17T01:12:03.862Z,91.60
2018-07-17T01:14:40.637Z,91.90
2018-07-17T01:17:09.596Z,92.60
2018-07-17T01:19:38.121Z,92.90
2018-07-17T01:22:06.701Z,92.70
2018-07-17T01:24:35.261Z,92.60
2018-07-17T01:27:03.941Z,92.70
2018-07-17T01:29:32.457Z,93.20
2018-07-17T01:32:01.262Z,93.00
2018-07-17T01:34:29.801Z,93.00
2018-07-17T01:36:58.345Z,93.50
2018-07-17T01:39:26.905Z,93.20
2018-07-17T01:41:55.435Z,93.40
2018-07-17T01:44:23.981Z,93.10
2018-07-17T01:46:52.533Z,93.00
2018-07-17T01:49:21.066Z,92.80
2018-07-17T01:51:49.581Z,92.10
2018-07-17T01:54:18.121Z,92.30
2018-07-17T01:56:47.330Z,92.70
2018-07-17T01:59:15.910Z,92.20
2018-07-17T02:01:45.313Z,92.10
2018-07-17T02:04:13.873Z,92.50
2018-07-17T02:06:42.405Z,92.20
2018-07-17T02:09:10.937Z,92.20
2018-07-17T02:11:39.965Z,92.20
2018-07-17T02:14:08.493Z,92.30
2018-07-17T02:16:37.014Z,92.30
2018-07-17T02:19:06.707Z,92.60
2018-07-17T02:21:35.218Z,92.50
2018-07-17T02:24:03.783Z,92.60
2018-07-17T02:26:32.329Z,92.60
2018-07-17T02:29:00.849Z,92.90
2018-07-17T02:31:30.172Z,92.10
2018-07-17T02:33:58.698Z,92.40
2018-07-17T02:36:27.243Z,92.50
2018-07-17T02:38:55.811Z,91.50
2018-07-17T02:41:24.364Z,91.90
2018-07-17T02:43:52.864Z,92.00
2018-07-17T02:46:21.422Z,92.30
2018-07-17T02:48:50.076Z,91.90
2018-07-17T02:51:18.659Z,92.30
2018-07-17T02:53:47.200Z,92.50
2018-07-17T02:56:15.722Z,91.50
2018-07-17T02:58:44.265Z,92.00
2018-07-17T03:01:12.831Z,91.90
2018-07-17T03:03:41.379Z,91.70
2018-07-17T03:06:09.922Z,92.40
2018-07-17T03:08:38.455Z,91.90
2018-07-17T03:11:07.033Z,92.00
2018-07-17T03:13:35.599Z,92.60
2018-07-17T03:16:04.176Z,92.20
2018-07-17T03:18:32.706Z,92.00
2018-07-17T03:21:01.243Z,91.90
2018-07-17T03:23:29.894Z,92.30
2018-07-17T03:25:59.127Z,92.40
2018-07-17T03:28:27.676Z,93.00
2018-07-17T03:30:56.960Z,93.00
2018-07-17T03:33:26.057Z,92.30
2018-07-17T03:35:55.609Z,92.30
2018-07-17T03:40:52.389Z,92.60
2018-07-17T03:43:21.355Z,92.90
2018-07-17T03:48:18.081Z,92.60
2018-07-17T03:50:46.626Z,93.60
2018-07-17T03:53:15.205Z,93.40
2018-07-17T03:55:43.754Z,93.50
2018-07-17T03:58:12.277Z,93.60
2018-07-17T04:00:40.815Z,93.50
2018-07-17T04:03:09.684Z,93.70
2018-07-17T04:05:39.589Z,93.50
2018-07-17T04:08:08.139Z,93.20
2018-07-17T04:10:36.677Z,93.30
2018-07-17T04:13:05.445Z,93.70
2018-07-17T04:15:34.014Z,94.00
2018-07-17T04:18:02.662Z,93.80
2018-07-17T04:20:31.178Z,93.90
2018-07-17T04:22:59.763Z,93.70
2018-07-17T04:25:29.286Z,94.10
2018-07-17T04:27:57.825Z,94.00
2018-07-17T04:30:26.366Z,94.00
2018-07-17T04:32:55.155Z,94.20
2018-07-17T04:35:24.234Z,94.30
2018-07-17T04:37:53.002Z,94.80
2018-07-17T04:40:21.647Z,95.20
2018-07-17T04:42:50.853Z,95.00
2018-07-17T04:45:20.118Z,95.30
2018-07-17T04:47:48.706Z,95.70
2018-07-17T04:50:17.308Z,96.10
2018-07-17T04:52:45.874Z,96.00
2018-07-17T04:55:14.464Z,96.70
2018-07-17T04:57:43.229Z,96.70
2018-07-17T05:00:11.830Z,96.90
2018-07-17T05:02:40.984Z,96.90
2018-07-17T05:05:09.597Z,97.40
2018-07-17T05:07:38.165Z,97.90
2018-07-17T05:10:06.965Z,98.20
2018-07-17T05:12:35.538Z,98.70
2018-07-17T05:15:04.312Z,98.80
2018-07-17T05:17:32.987Z,99.30
2018-07-17T05:20:01.674Z,99.30
2018-07-17T05:22:30.302Z,99.90
2018-07-17T05:24:58.909Z,99.90
2018-07-17T05:27:28.121Z,99.90
2018-07-17T05:32:25.075Z,99.90
2018-07-17T05:34:53.682Z,99.90
2018-07-17T05:37:22.304Z,99.90
2018-07-17T05:39:50.909Z,99.90
2018-07-17T05:42:19.470Z,99.90
2018-07-17T05:44:48.377Z,99.90
2018-07-17T05:47:16.917Z,99.90
2018-07-17T05:49:45.445Z,99.90
2018-07-17T05:52:14.366Z,99.90
2018-07-17T05:59:40.138Z,99.90
2018-07-17T06:02:10.753Z,99.90
2018-07-17T06:04:39.336Z,99.90
2018-07-17T06:07:07.946Z,99.90
2018-07-17T06:09:36.546Z,99.90
2018-07-17T06:12:05.162Z,99.90
2018-07-17T06:14:33.726Z,99.90
2018-07-17T06:17:03.033Z,99.90
2018-07-17T06:19:32.215Z,99.90
2018-07-17T06:22:00.802Z,99.90
2018-07-17T06:24:29.382Z,99.90
2018-07-17T06:26:57.959Z,99.90
2018-07-17T06:29:27.481Z,99.90
2018-07-17T06:31:56.326Z,99.90
2018-07-17T06:34:24.869Z,99.90
2018-07-17T06:36:53.477Z,99.90
2018-07-17T06:39:22.057Z,99.90
2018-07-17T06:41:50.831Z,99.90
2018-07-17T06:44:19.413Z,99.90
2018-07-17T06:46:48.914Z,99.90
2018-07-17T06:49:18.078Z,99.90
2018-07-17T06:51:48.140Z,99.80
2018-07-17T06:54:16.675Z,99.50
2018-07-17T06:56:45.253Z,99.40
2018-07-17T06:59:14.150Z,99.60
2018-07-17T07:01:42.673Z,97.20
2018-07-17T07:04:11.205Z,97.20
2018-07-17T07:06:39.721Z,97.70
2018-07-17T07:09:09.541Z,96.90
2018-07-17T07:11:38.413Z,96.50
2018-07-17T07:14:07.102Z,97.10
2018-07-17T07:16:35.683Z,97.00
2018-07-17T07:19:05.179Z,96.80
2018-07-17T07:21:33.833Z,96.40
2018-07-17T07:24:02.671Z,96.10
2018-07-17T07:26:31.243Z,95.90
2018-07-17T07:29:00.153Z,95.20
2018-07-17T07:31:28.798Z,96.30
2018-07-17T07:33:57.525Z,94.70
2018-07-17T07:36:27.065Z,95.50
2018-07-17T07:38:56.235Z,93.70
2018-07-17T07:41:25.012Z,94.00
2018-07-17T07:43:53.596Z,93.20
2018-07-17T07:46:22.216Z,92.40
2018-07-17T07:48:50.791Z,91.00
2018-07-17T07:51:19.353Z,92.00
2018-07-17T07:53:47.891Z,91.40
2018-07-17T07:56:16.526Z,90.00
2018-07-17T07:58:45.199Z,90.00
2018-07-17T08:01:13.782Z,90.00
2018-07-17T08:03:42.405Z,88.30
2018-07-17T08:06:10.951Z,85.20
2018-07-17T08:08:39.577Z,84.30
2018-07-17T08:11:08.189Z,84.50
2018-07-17T08:13:36.879Z,84.70
2018-07-17T08:16:05.576Z,79.70
2018-07-17T08:18:34.188Z,81.40
2018-07-17T08:21:02.772Z,77.90
2018-07-17T08:23:31.370Z,77.70
2018-07-17T08:25:59.982Z,78.70
2018-07-17T08:28:31.479Z,80.00
2018-07-17T08:31:00.106Z,77.50
2018-07-17T08:33:28.717Z,78.10
2018-07-17T08:38:25.608Z,78.90
2018-07-17T08:40:54.185Z,78.10
2018-07-17T08:43:23.183Z,79.10
2018-07-17T08:45:52.263Z,79.80
2018-07-17T08:48:20.868Z,73.50
2018-07-17T08:50:50.109Z,74.80
2018-07-17T08:53:18.677Z,73.80
2018-07-17T08:55:47.291Z,73.30
2018-07-17T08:58:15.841Z,73.40
2018-07-17T09:00:45.114Z,74.30
2018-07-17T09:03:13.701Z,71.00
2018-07-17T09:05:42.249Z,70.50
2018-07-17T09:10:39.617Z,68.00
2018-07-17T09:13:08.230Z,67.40
2018-07-17T09:15:36.841Z,69.90
2018-07-17T09:18:05.382Z,66.20
2018-07-17T09:20:34.669Z,70.60
2018-07-17T09:23:03.234Z,66.30
2018-07-17T09:25:31.845Z,67.20
2018-07-17T09:28:00.502Z,67.60
2018-07-17T09:30:34.155Z,65.60
2018-07-17T09:33:02.979Z,64.70
2018-07-17T09:35:31.607Z,65.20
2018-07-17T09:38:00.822Z,67.30
2018-07-17T09:40:29.385Z,65.90
2018-07-17T09:42:57.934Z,64.80
2018-07-17T09:45:26.452Z,64.50
2018-07-17T09:47:55.049Z,62.70
2018-07-17T09:50:23.601Z,65.10
2018-07-17T09:52:52.153Z,65.60
2018-07-17T09:55:20.722Z,62.20
2018-07-17T09:57:49.245Z,64.50
2018-07-17T10:00:23.147Z,61.90
2018-07-17T10:02:52.342Z,61.50
2018-07-17T10:05:20.917Z,62.40
2018-07-17T10:07:49.530Z,63.10
2018-07-17T10:10:18.758Z,63.50
2018-07-17T10:12:47.293Z,63.90
2018-07-17T10:15:15.927Z,62.20
2018-07-17T10:17:44.479Z,63.60
2018-07-17T10:20:13.093Z,63.50
2018-07-17T10:22:42.594Z,62.80
2018-07-17T10:25:12.083Z,63.10
2018-07-17T10:27:41.415Z,61.90
2018-07-17T10:30:10.767Z,63.00
2018-07-17T10:32:39.348Z,62.50
2018-07-17T10:35:09.167Z,60.00
2018-07-17T10:37:39.590Z,60.50
2018-07-17T10:40:09.787Z,60.50
2018-07-17T10:42:39.526Z,60.80
2018-07-17T10:45:09.753Z,61.20
2018-07-17T10:47:38.686Z,59.90
2018-07-17T10:50:08.295Z,59.40
2018-07-17T10:52:37.885Z,59.60
2018-07-17T10:55:06.414Z,62.00
2018-07-17T10:57:34.973Z,61.30
2018-07-17T11:00:03.518Z,61.90
2018-07-17T11:02:33.580Z,61.40
2018-07-17T11:05:02.118Z,61.00
2018-07-17T11:07:31.425Z,60.70
2018-07-17T11:10:04.641Z,58.90
2018-07-17T11:12:35.502Z,59.10
2018-07-17T11:15:05.438Z,58.00
2018-07-17T11:17:34.612Z,58.40
2018-07-17T11:20:03.197Z,59.20
2018-07-17T11:22:34.441Z,57.60
2018-07-17T11:25:04.017Z,56.90
2018-07-17T11:27:39.212Z,58.20
2018-07-17T11:30:10.252Z,58.80
2018-07-17T11:32:40.011Z,57.10
2018-07-17T11:35:10.504Z,56.80
2018-07-17T11:37:44.324Z,57.10
2018-07-17T11:40:14.566Z,56.00
2018-07-17T11:42:43.097Z,57.70
2018-07-17T11:45:13.027Z,56.50
2018-07-17T11:47:43.438Z,54.10
2018-07-17T11:50:12.458Z,54.60
2018-07-17T11:52:40.978Z,54.30
2018-07-17T11:55:10.162Z,54.90
2018-07-17T11:57:40.716Z,54.10
2018-07-17T12:00:09.918Z,52.30
2018-07-17T12:05:13.753Z,52.60
2018-07-17T12:07:46.455Z,51.40
2018-07-17T12:10:16.694Z,50.60
2018-07-17T12:12:45.417Z,51.10
2018-07-17T12:15:13.902Z,49.40
2018-07-17T12:17:42.445Z,48.20
2018-07-17T12:20:11.215Z,47.80
2018-07-17T12:22:39.668Z,49.10
2018-07-17T12:25:08.268Z,48.90
2018-07-17T12:27:36.809Z,49.30
2018-07-17T12:30:07.346Z,48.70
2018-07-17T12:32:36.177Z,49.70
2018-07-17T12:35:05.970Z,49.50
2018-07-17T12:37:34.547Z,49.90
2018-07-17T12:40:03.394Z,51.80
2018-07-17T12:42:32.245Z,52.80
2018-07-17T12:45:01.710Z,48.90
2018-07-17T12:47:30.229Z,48.50
2018-07-17T12:49:59.247Z,50.30
2018-07-17T12:52:27.742Z,51.30
2018-07-17T12:54:56.962Z,51.20
2018-07-17T12:57:25.518Z,48.90
2018-07-17T12:59:55.060Z,48.30
2018-07-17T13:02:23.646Z,48.80
2018-07-17T13:04:52.147Z,49.80
2018-07-17T13:07:20.678Z,49.40
2018-07-17T13:09:49.193Z,49.20
2018-07-17T13:12:18.682Z,48.40
2018-07-17T13:17:17.009Z,48.50
2018-07-17T13:19:46.101Z,49.10
2018-07-17T13:22:15.263Z,49.70
2018-07-17T13:27:12.047Z,50.00
2018-07-17T13:29:41.189Z,49.70
2018-07-17T13:32:11.266Z,49.20
2018-07-17T13:34:39.937Z,48.80
2018-07-17T13:37:09.744Z,49.30
2018-07-17T13:39:38.590Z,49.80
2018-07-17T13:42:07.241Z,48.40
2018-07-17T13:44:36.450Z,49.20
2018-07-17T13:47:05.028Z,50.70
2018-07-17T13:49:33.604Z,50.70
2018-07-17T13:52:02.173Z,50.10
2018-07-17T13:54:31.318Z,48.90
2018-07-17T13:57:00.134Z,48.20
2018-07-17T13:59:30.941Z,49.10
2018-07-17T14:02:01.010Z,49.30
2018-07-17T14:06:59.364Z,50.00
2018-07-17T14:09:27.890Z,49.00
2018-07-17T14:11:57.423Z,48.70
2018-07-17T14:14:26.534Z,49.20
2018-07-17T14:16:55.770Z,49.00
2018-07-17T14:19:25.000Z,49.50
2018-07-17T14:21:56.858Z,49.20
2018-07-17T14:24:26.853Z,50.20
2018-07-17T14:26:55.382Z,50.50
2018-07-17T14:29:26.625Z,49.20
2018-07-17T14:31:55.258Z,50.00
2018-07-17T14:34:25.425Z,49.90
2018-07-17T14:36:55.096Z,51.50
2018-07-17T14:39:24.293Z,51.90
2018-07-17T14:41:53.359Z,52.70
2018-07-17T14:44:23.434Z,52.90
2018-07-17T14:46:52.570Z,53.20
2018-07-17T14:49:21.383Z,54.20
2018-07-17T14:51:49.961Z,54.60
2018-07-17T14:54:19.786Z,53.40
2018-07-17T14:56:48.314Z,53.70
2018-07-17T14:59:18.453Z,53.70
2018-07-17T15:01:47.771Z,54.70
2018-07-17T15:04:16.347Z,54.70
2018-07-17T15:06:45.387Z,54.70
2018-07-17T15:09:13.929Z,55.50
2018-07-17T15:11:42.486Z,54.90
2018-07-17T15:14:11.545Z,55.10
2018-07-17T15:16:40.092Z,55.70
2018-07-17T15:19:09.553Z,56.00
2018-07-17T15:21:38.705Z,56.80
2018-07-17T15:24:07.864Z,57.30
2018-07-17T15:26:36.498Z,56.90
2018-07-17T15:29:05.070Z,57.00
2018-07-17T15:31:33.642Z,57.50
2018-07-17T15:34:03.267Z,57.40
2018-07-17T15:36:31.886Z,57.10
2018-07-17T15:39:00.506Z,57.30
2018-07-17T15:41:29.107Z,57.00
2018-07-17T15:43:57.674Z,57.30
2018-07-17T15:46:26.234Z,56.10
2018-07-17T15:48:54.932Z,56.40
2018-07-17T15:51:23.501Z,57.10
2018-07-17T15:53:52.123Z,57.70
2018-07-17T15:56:20.684Z,56.10
2018-07-17T15:58:49.256Z,56.10
2018-07-17T16:01:17.828Z,56.30
2018-07-17T16:03:46.347Z,56.30
2018-07-17T16:06:14.937Z,56.20
2018-07-17T16:08:43.462Z,57.00
2018-07-17T16:11:11.981Z,57.40
2018-07-17T16:13:40.638Z,57.10
2018-07-17T16:16:09.113Z,56.60
2018-07-17T16:18:37.683Z,55.20
2018-07-17T16:21:06.512Z,56.00
2018-07-17T16:23:35.078Z,56.80
2018-07-17T16:26:03.683Z,57.20
2018-07-17T16:28:32.208Z,56.40
2018-07-17T16:31:00.773Z,57.00
2018-07-17T16:33:29.325Z,56.70
2018-07-17T16:35:57.927Z,56.40
2018-07-17T16:38:26.554Z,55.90
2018-07-17T16:40:55.093Z,55.90
2018-07-17T16:43:25.133Z,56.60
2018-07-17T16:45:53.670Z,56.20
2018-07-17T16:48:23.313Z,56.00
2018-07-17T16:50:52.325Z,56.70
2018-07-17T16:53:20.944Z,56.80
2018-07-17T16:55:49.914Z,57.10
2018-07-17T16:58:18.639Z,56.70
2018-07-17T17:00:47.245Z,57.50
2018-07-17T17:03:17.542Z,57.10
2018-07-17T17:05:46.502Z,56.80
2018-07-17T17:08:15.047Z,57.90
2018-07-17T17:10:43.614Z,57.40
2018-07-17T17:13:12.137Z,57.80
2018-07-17T17:15:40.674Z,58.50
2018-07-17T17:18:09.226Z,57.90
2018-07-17T17:20:37.824Z,57.70
2018-07-17T17:23:07.048Z,57.80
2018-07-17T17:25:35.596Z,57.50
2018-07-17T17:28:04.116Z,57.70
2018-07-17T17:30:32.659Z,57.60
2018-07-17T17:33:01.170Z,58.20
2018-07-17T17:35:29.711Z,57.00
2018-07-17T17:37:58.223Z,56.60
2018-07-17T17:40:26.752Z,56.70
2018-07-17T17:42:55.260Z,57.60
2018-07-17T17:45:23.798Z,58.10
2018-07-17T17:47:53.062Z,58.00
2018-07-17T17:50:21.594Z,57.80
2018-07-17T17:52:50.199Z,57.60
2018-07-17T17:55:18.702Z,57.30
2018-07-17T17:57:47.316Z,57.00
2018-07-17T18:00:15.977Z,57.00
2018-07-17T18:02:44.477Z,56.90
2018-07-17T18:05:14.110Z,57.60
2018-07-17T18:07:42.745Z,57.60
2018-07-17T18:10:11.861Z,57.90
2018-07-17T18:12:40.539Z,57.60
2018-07-17T18:15:10.077Z,57.50
2018-07-17T18:17:38.597Z,57.60
2018-07-17T18:20:07.120Z,57.70
2018-07-17T18:22:36.389Z,57.90
2018-07-17T18:25:06.142Z,58.40
2018-07-17T18:27:34.657Z,59.00
2018-07-17T18:30:03.941Z,57.70
2018-07-17T18:32:33.838Z,58.00
2018-07-17T18:35:02.422Z,57.80
2018-07-17T18:37:30.942Z,59.10
2018-07-17T18:40:00.402Z,59.20
2018-07-17T18:42:29.500Z,58.40
2018-07-17T18:44:58.594Z,59.20
2018-07-17T18:47:28.170Z,59.00
2018-07-17T18:50:12.312Z,59.40
2018-07-17T18:52:26.472Z,60.40
2018-07-17T18:54:55.073Z,60.10
2018-07-17T18:57:23.593Z,60.40
2018-07-17T18:59:53.078Z,60.40
2018-07-17T19:02:21.605Z,60.60
2018-07-17T19:04:50.883Z,60.90
2018-07-17T19:07:19.425Z,61.10
2018-07-17T19:09:47.954Z,62.30
2018-07-17T19:12:28.498Z,62.40
2018-07-17T19:14:56.970Z,63.30
2018-07-17T19:17:27.520Z,63.60
2018-07-17T19:19:56.161Z,64.80
2018-07-17T19:24:52.920Z,65.60
2018-07-17T19:27:21.502Z,67.40
2018-07-17T19:29:50.085Z,65.80
2018-07-17T19:32:18.764Z,67.10
2018-07-17T19:34:48.273Z,66.60
2018-07-17T19:37:16.796Z,68.10
2018-07-17T19:39:46.262Z,68.70
2018-07-17T19:44:43.010Z,70.20
2018-07-17T19:49:40.702Z,70.50
2018-07-17T19:52:11.165Z,70.50
2018-07-17T19:54:41.270Z,74.60
2018-07-17T19:57:10.063Z,72.60
2018-07-17T19:59:38.737Z,73.50
2018-07-17T20:02:07.566Z,75.00
2018-07-17T20:04:36.141Z,78.70
2018-07-17T20:07:04.780Z,78.40
2018-07-17T20:09:34.137Z,80.70
2018-07-17T20:12:02.698Z,81.80
2018-07-17T20:14:31.254Z,82.50
2018-07-17T20:16:59.810Z,80.30
2018-07-17T20:19:28.666Z,82.10
2018-07-17T20:21:57.225Z,85.00
2018-07-17T20:24:25.803Z,83.60
2018-07-17T20:26:54.350Z,85.30
2018-07-17T20:29:23.659Z,83.50
2018-07-17T20:31:52.237Z,84.80
2018-07-17T20:34:20.774Z,88.50
2018-07-17T20:36:49.375Z,85.20
2018-07-17T20:39:17.948Z,87.70
2018-07-17T20:41:46.610Z,87.40
2018-07-17T20:44:15.183Z,86.30
2018-07-17T20:46:43.834Z,89.10
2018-07-17T20:49:12.334Z,88.80
2018-07-17T20:51:40.906Z,90.00
2018-07-17T20:54:09.442Z,89.30
2018-07-17T20:56:38.805Z,90.10
2018-07-17T20:59:07.369Z,89.80
2018-07-17T21:01:35.915Z,90.40
2018-07-17T21:04:04.495Z,90.90
2018-07-17T21:06:33.014Z,90.80
2018-07-17T21:09:01.564Z,90.90
2018-07-17T21:11:30.373Z,91.50
2018-07-17T21:13:58.918Z,91.80
2018-07-17T21:16:27.715Z,92.10
2018-07-17T21:18:56.269Z,91.90
2018-07-17T21:21:24.837Z,92.40
2018-07-17T21:23:53.479Z,92.10
2018-07-17T21:26:22.056Z,92.60
2018-07-17T21:28:50.609Z,92.40
2018-07-17T21:31:19.151Z,92.60
2018-07-17T21:33:47.718Z,92.60
2018-07-17T21:36:16.261Z,92.70
2018-07-17T21:38:44.927Z,92.90
2018-07-17T21:41:14.333Z,93.00
2018-07-17T21:43:42.887Z,93.50
2018-07-17T21:46:11.654Z,93.70
2018-07-17T21:48:40.223Z,93.50
2018-07-17T21:51:08.792Z,93.80
2018-07-17T21:53:37.385Z,93.90
2018-07-17T21:56:05.964Z,94.40
2018-07-17T21:58:34.525Z,94.40
2018-07-17T22:01:03.085Z,94.70
2018-07-17T22:03:31.638Z,94.50
2018-07-17T22:06:00.150Z,95.10
2018-07-17T22:08:28.726Z,95.20
2018-07-17T22:10:57.889Z,95.40
2018-07-17T22:13:26.942Z,95.60
2018-07-17T22:15:56.517Z,95.60
2018-07-17T22:18:25.050Z,95.70
2018-07-17T22:20:53.578Z,95.90
2018-07-17T22:23:22.121Z,95.90
2018-07-17T22:25:50.722Z,95.90
2018-07-17T22:28:19.254Z,96.50
2018-07-17T22:30:47.866Z,96.70
2018-07-17T22:33:16.401Z,96.90
2018-07-17T22:35:45.073Z,96.90
2018-07-17T22:38:14.456Z,97.20
2018-07-17T22:40:43.590Z,97.20
2018-07-17T22:43:12.121Z,97.20
2018-07-17T22:48:08.908Z,97.50
2018-07-17T22:50:37.465Z,97.80
2018-07-17T22:53:06.042Z,97.50
2018-07-17T22:55:34.619Z,98.10
2018-07-17T22:58:03.452Z,98.20
2018-07-17T23:00:32.001Z,98.40
2018-07-17T23:03:00.662Z,98.40
2018-07-17T23:05:29.204Z,98.60
2018-07-17T23:07:57.758Z,98.60
2018-07-17T23:10:26.342Z,98.70
2018-07-17T23:12:54.865Z,99.10
2018-07-17T23:15:23.424Z,99.30
2018-07-17T23:17:51.986Z,99.20
2018-07-17T23:20:20.677Z,99.20
2018-07-17T23:22:53.587Z,99.60
2018-07-17T23:25:23.254Z,99.80
2018-07-17T23:27:52.212Z,99.90
2018-07-17T23:30:20.798Z,99.90
2018-07-17T23:32:50.537Z,99.90
2018-07-17T23:35:20.996Z,99.70
2018-07-17T23:37:50.020Z,99.90
2018-07-17T23:40:18.722Z,99.90
2018-07-17T23:42:47.274Z,99.90
2018-07-17T23:45:16.582Z,99.40
2018-07-17T23:47:45.790Z,99.90
2018-07-17T23:50:14.351Z,99.90
2018-07-17T23:52:42.971Z,99.90
2018-07-17T23:55:11.507Z,99.90
2018-07-17T23:57:40.254Z,99.90
